Hartshill, United Kingdom
Current Conditions -  °F | °C
As of 4:20 AM on Tuesday 23 Dec 2014 (Local Time) from EGBB Reporting Station
Broken Clouds Broken Clouds  
Wind Chill: 52°   Ceiling: 4600
Heat Index: 52°   Visibility: 6mi
Dew Point: 43°   Wind: 13mph
Humidity: 71%   Direction: 230°SW
Pressure: 29.94"   Gusts: NA
Location:  52.54°N, 1.52°W
Report Text: EGBB 230420Z 23011KT 210V270 9999 SCT024 BKN046 11/06 Q1014
Loading
Personal Weather Stations






























Interactive Weather Map New forecast layout! Learn more

10-Day Weather Forecast

Advertisements
Track Severe Weather on mobile